Time;durP1;ratioP1;P1;durP2;ratioP2;P2;SDS_P1;SDS_P2;PMS_P1;PMS_P2;Temp;Humidity;BMP_temperature;BMP_pressure;BME280_temperature;BME280_humidity;BME280_pressure;Samples;Min_cycle;Max_cycle;Signal;HPM_P1;HPM_P2
2023/09/16 00:01:24;;;;;;;5.53;5.03;;;;;;;;;;6202191;28;20196;-71
2023/09/16 00:04:25;;;;;;;8.43;5.50;;;;;;;;;;6202053;28;20223;-71
2023/09/16 00:07:27;;;;;;;6.57;4.80;;;;;;;;;;6202108;28;20207;-71
2023/09/16 00:10:28;;;;;;;6.80;5.00;;;;;;;;;;6207349;28;21025;-71
2023/09/16 00:13:29;;;;;;;10.27;5.33;;;;;;;;;;6211349;28;20438;-71
2023/09/16 00:16:30;;;;;;;7.90;4.80;;;17.20;89.20;;;;;;6215651;28;20201;-71
2023/09/16 00:19:30;;;;;;;5.23;4.73;;;14.90;92.20;;;;;;6209400;28;20196;-71
2023/09/16 00:22:31;;;;;;;6.23;4.97;;;14.90;92.10;;;;;;6186806;28;20195;-71
2023/09/16 00:25:32;;;;;;;10.80;5.27;;;14.90;92.20;;;;;;6199143;28;20245;-71
2023/09/16 00:28:35;;;;;;;7.57;5.10;;;14.90;92.90;;;;;;6194635;28;20203;-71
2023/09/16 00:31:36;;;;;;;6.23;4.60;;;14.90;92.70;;;;;;6203029;28;20219;-71
2023/09/16 00:34:36;;;;;;;6.07;5.40;;;14.90;92.60;;;;;;6201233;28;20187;-71
2023/09/16 00:37:38;;;;;;;9.40;5.40;;;14.90;93.40;;;;;;6204980;28;20218;-71
2023/09/16 00:40:39;;;;;;;6.23;5.30;;;14.80;92.50;;;;;;6177118;28;20195;-71
2023/09/16 00:43:39;;;;;;;5.73;4.47;;;14.80;93.20;;;;;;6187388;28;20199;-71
2023/09/16 00:46:40;;;;;;;7.13;5.10;;;14.80;92.50;;;;;;6182802;28;20302;-71
2023/09/16 00:49:41;;;;;;;6.80;5.47;;;14.80;92.70;;;;;;6201755;28;20204;-71
2023/09/16 00:52:56;;;;;;;11.27;5.33;;;14.80;92.50;;;;;;6196422;28;20220;-71
2023/09/16 00:55:57;;;;;;;5.40;4.63;;;14.70;92.50;;;;;;6224471;28;20196;-71
2023/09/16 00:58:59;;;;;;;6.23;5.10;;;14.70;92.70;;;;;;6208195;28;20187;-71
2023/09/16 01:02:00;;;;;;;7.97;5.33;;;14.70;93.10;;;;;;6191526;28;20200;-71
2023/09/16 01:05:04;;;;;;;5.23;4.73;;;14.70;93.10;;;;;;6206099;28;20195;-71
2023/09/16 01:08:05;;;;;;;9.53;5.20;;;14.70;92.50;;;;;;6218820;28;20219;-71
2023/09/16 01:11:06;;;;;;;8.63;5.77;;;14.70;92.90;;;;;;6207041;28;20234;-71
2023/09/16 01:14:07;;;;;;;7.43;5.20;;;14.60;92.60;;;;;;6184593;28;20285;-71
2023/09/16 01:17:23;;;;;;;8.07;5.53;;;14.60;92.10;;;;;;6223516;28;20184;-71
2023/09/16 01:20:26;;;;;;;9.97;6.40;;;14.60;93.10;;;;;;6224859;28;20200;-71
2023/09/16 01:23:27;;;;;;;5.27;4.77;;;14.60;93.20;;;;;;6201097;28;20282;-71
2023/09/16 01:26:27;;;;;;;7.67;5.07;;;14.50;92.50;;;;;;6199097;28;20192;-71
2023/09/16 01:29:29;;;;;;;6.43;5.07;;;14.50;92.60;;;;;;6180977;28;20222;-71
2023/09/16 01:32:42;;;;;;;7.07;5.23;;;14.50;92.80;;;;;;6192049;28;20305;-71
2023/09/16 01:35:47;;;;;;;6.33;5.27;;;14.50;93.30;;;;;;6216915;28;20309;-71
2023/09/16 01:38:51;;;;;;;6.00;5.13;;;14.50;92.80;;;;;;6225475;28;20242;-71
2023/09/16 01:41:54;;;;;;;8.57;5.83;;;14.50;93.00;;;;;;6221192;28;20193;-71
2023/09/16 01:44:55;;;;;;;6.80;5.23;;;14.50;93.60;;;;;;6200046;28;20204;-71
2023/09/16 01:47:55;;;;;;;5.10;4.60;;;14.50;93.00;;;;;;6195580;28;20196;-71
2023/09/16 01:50:56;;;;;;;8.43;5.20;;;14.50;93.30;;;;;;6192890;28;20195;-71
2023/09/16 01:53:57;;;;;;;7.53;5.47;;;14.50;92.90;;;;;;6193548;28;20309;-71
2023/09/16 01:56:57;;;;;;;8.60;5.40;;;14.50;93.10;;;;;;6203039;28;20190;-71
2023/09/16 01:59:58;;;;;;;6.00;5.40;;;14.50;93.10;;;;;;6183948;28;20280;-71
2023/09/16 02:02:59;;;;;;;7.30;5.13;;;14.40;93.00;;;;;;6198439;28;20203;-71
2023/09/16 02:05:59;;;;;;;5.43;4.93;;;14.40;93.50;;;;;;6182558;28;20200;-71
2023/09/16 02:09:00;;;;;;;5.03;4.63;;;14.40;93.30;;;;;;6220762;28;20195;-70
2023/09/16 02:12:01;;;;;;;9.40;5.50;;;14.40;93.20;;;;;;6209666;28;20222;-70
2023/09/16 02:15:06;;;;;;;11.17;6.07;;;14.40;92.90;;;;;;6184286;28;20181;-70
2023/09/16 02:18:07;;;;;;;7.57;4.93;;;14.40;93.00;;;;;;6191561;28;20282;-70
2023/09/16 02:21:07;;;;;;;6.97;5.60;;;14.40;92.80;;;;;;6189055;28;20187;-70
2023/09/16 02:24:08;;;;;;;7.17;4.93;;;14.30;93.00;;;;;;6183290;28;20304;-70
2023/09/16 02:27:09;;;;;;;7.77;4.93;;;14.30;93.40;;;;;;6216515;28;20207;-70
2023/09/16 02:30:10;;;;;;;7.67;4.67;;;14.30;93.30;;;;;;6184907;28;20200;-70
2023/09/16 02:33:11;;;;;;;5.27;4.77;;;14.40;93.20;;;;;;6214361;28;20211;-70
2023/09/16 02:36:11;;;;;;;7.67;5.57;;;14.30;93.40;;;;;;6171030;28;20223;-70
2023/09/16 02:39:12;;;;;;;5.67;5.17;;;14.30;92.80;;;;;;6183915;28;20332;-70
2023/09/16 02:42:13;;;;;;;8.93;4.80;;;14.30;92.80;;;;;;6199173;28;20206;-70
2023/09/16 02:45:13;;;;;;;9.27;5.93;;;14.30;93.30;;;;;;6190234;28;20196;-71
2023/09/16 02:48:18;;;;;;;6.00;5.27;;;;;;;;;;6189414;28;20247;-71
2023/09/16 02:51:19;;;;;;;5.67;5.17;;;;;;;;;;6203350;28;20199;-71
2023/09/16 02:54:20;;;;;;;6.30;4.90;;;;;;;;;;6206705;28;20194;-71
2023/09/16 02:57:21;;;;;;;6.00;5.30;;;;;;;;;;6206498;28;20291;-71
2023/09/16 03:00:22;;;;;;;6.43;4.83;;;;;;;;;;6218896;28;20195;-71
2023/09/16 03:03:23;;;;;;;7.30;5.23;;;;;;;;;;6212588;28;20203;-71
2023/09/16 03:06:26;;;;;;;7.47;5.00;;;;;;;;;;6198453;28;20188;-71
2023/09/16 03:09:27;;;;;;;5.70;5.20;;;;;;;;;;6223145;28;20222;-71
2023/09/16 03:12:28;;;;;;;7.00;5.50;;;;;;;;;;6192376;28;20266;-71
2023/09/16 03:15:29;;;;;;;5.70;5.20;;;;;;;;;;6220325;28;20271;-71
2023/09/16 03:18:30;;;;;;;7.37;4.87;;;;;;;;;;6197510;28;20281;-71
2023/09/16 03:21:31;;;;;;;5.40;4.90;;;;;;;;;;6200538;28;20289;-71
2023/09/16 03:24:32;;;;;;;8.30;4.90;;;;;;;;;;6206434;28;20332;-71
2023/09/16 03:27:33;;;;;;;8.43;5.33;;;;;;;;;;6205356;28;20320;-71
2023/09/16 03:30:34;;;;;;;7.50;5.57;;;;;;;;;;6205997;28;20196;-71
2023/09/16 03:33:36;;;;;;;9.07;5.20;;;;;;;;;;6208843;28;20212;-71
2023/09/16 03:36:38;;;;;;;6.47;5.33;;;;;;;;;;6204174;28;20211;-71
2023/09/16 03:39:40;;;;;;;5.73;5.13;;;;;;;;;;6203705;28;20185;-71
2023/09/16 03:42:41;;;;;;;5.87;5.33;;;;;;;;;;6209288;28;20195;-71
2023/09/16 03:45:42;;;;;;;6.83;5.73;;;;;;;;;;6203865;28;20206;-71
2023/09/16 03:48:43;;;;;;;6.30;5.70;;;;;;;;;;6202691;28;20211;-71
2023/09/16 03:51:44;;;;;;;6.90;6.20;;;;;;;;;;6203056;28;20247;-71
2023/09/16 03:54:45;;;;;;;7.97;5.47;;;;;;;;;;6216725;28;20247;-71
2023/09/16 03:57:46;;;;;;;6.23;5.63;;;;;;;;;;6205173;28;20219;-71
2023/09/16 04:00:50;;;;;;;6.60;6.00;;;;;;;;;;6203734;28;20246;-71
2023/09/16 04:03:51;;;;;;;5.63;5.13;;;;;;;;;;6216098;28;20271;-71
2023/09/16 04:06:52;;;;;;;8.27;6.10;;;;;;;;;;6213504;28;20295;-71
2023/09/16 04:09:53;;;;;;;7.07;5.73;;;;;;;;;;6211961;28;20195;-71
2023/09/16 04:12:54;;;;;;;6.10;5.47;;;;;;;;;;6214408;28;20310;-71
2023/09/16 04:15:55;;;;;;;5.57;5.07;;;;;;;;;;6201492;28;20351;-71
2023/09/16 04:18:57;;;;;;;5.93;5.30;;;;;;;;;;6215631;28;20226;-71
2023/09/16 04:21:59;;;;;;;5.50;4.77;;;;;;;;;;6215520;28;20262;-71
2023/09/16 04:25:00;;;;;;;5.90;5.27;;;;;;;;;;6210787;28;20302;-71
2023/09/16 04:28:02;;;;;;;6.33;5.67;;;;;;;;;;6203631;28;20199;-71
2023/09/16 04:31:04;;;;;;;12.43;6.20;;;;;;;;;;6216758;28;20234;-71
2023/09/16 04:34:05;;;;;;;5.60;5.10;;;;;;;;;;6205498;28;20222;-71
2023/09/16 04:37:08;;;;;;;7.10;6.23;;;;;;;;;;6201520;28;20199;-71
2023/09/16 04:40:10;;;;;;;5.60;5.13;;;;;;;;;;6214806;28;20331;-71
2023/09/16 04:43:12;;;;;;;7.23;5.57;;;;;;;;;;6199281;28;20192;-71
2023/09/16 04:46:16;;;;;;;6.87;6.17;;;;;;;;;;6195425;28;20203;-71
2023/09/16 04:49:17;;;;;;;6.00;5.50;;;;;;;;;;6206275;28;20203;-71
2023/09/16 04:52:18;;;;;;;6.53;5.47;;;;;;;;;;6208655;28;20221;-72
2023/09/16 04:55:20;;;;;;;8.97;5.97;;;;;;;;;;6197431;28;20196;-71
2023/09/16 04:58:21;;;;;;;6.30;5.70;;;;;;;;;;6224499;28;20247;-73
2023/09/16 05:01:24;;;;;;;9.73;6.23;;;;;;;;;;6202692;28;20267;-74
2023/09/16 05:04:26;;;;;;;7.77;6.30;;;;;;;;;;6218900;28;20196;-74
2023/09/16 05:07:28;;;;;;;6.50;5.87;;;;;;;;;;6204274;28;20220;-73
2023/09/16 05:10:29;;;;;;;7.87;5.87;;;;;;;;;;6204966;28;20203;-72
2023/09/16 05:13:31;;;;;;;7.80;6.13;;;;;;;;;;6198062;28;20227;-72
2023/09/16 05:16:32;;;;;;;6.63;6.03;;;;;;;;;;6208854;28;20251;-73
2023/09/16 05:19:33;;;;;;;8.87;6.13;;;;;;;;;;6194821;28;20259;-72
2023/09/16 05:22:34;;;;;;;5.70;5.10;;;;;;;;;;6223742;28;20195;-71
2023/09/16 05:25:35;;;;;;;6.73;6.13;;;;;;;;;;6213174;28;20232;-73
2023/09/16 05:28:36;;;;;;;8.93;6.40;;;;;;;;;;6191310;28;20214;-72
2023/09/16 05:31:37;;;;;;;6.33;5.80;;;;;;;;;;6215151;28;20199;-73
2023/09/16 05:34:38;;;;;;;7.63;6.63;;;;;;;;;;6221184;28;20187;-73
2023/09/16 05:37:39;;;;;;;6.83;6.13;;;;;;;;;;6198388;28;20191;-73
2023/09/16 05:40:40;;;;;;;6.97;6.27;;;;;;;;;;6205758;28;20191;-73
2023/09/16 05:43:41;;;;;;;10.83;6.33;;;;;;;;;;6203983;28;20199;-71
2023/09/16 05:46:42;;;;;;;7.23;5.83;;;;;;;;;;6205722;28;20205;-75
2023/09/16 05:49:43;;;;;;;6.57;5.97;;;;;;;;;;6205900;28;20203;-73
2023/09/16 05:52:44;;;;;;;6.97;5.70;;;;;;;;;;6204472;28;20211;-75
2023/09/16 05:55:45;;;;;;;6.97;6.27;;;;;;;;;;6211986;28;20194;-75
2023/09/16 05:58:47;;;;;;;9.53;6.23;;;;;;;;;;6203878;28;20242;-75
2023/09/16 06:01:48;;;;;;;6.40;5.90;;;;;;;;;;6198847;28;20222;-75
2023/09/16 06:04:49;;;;;;;6.37;5.73;;;;;;;;;;6205445;28;20192;-75
2023/09/16 06:07:50;;;;;;;6.00;5.50;;;;;;;;;;6201654;28;20199;-73
2023/09/16 06:10:51;;;;;;;6.87;6.27;;;;;;;;;;6199032;28;20234;-74
2023/09/16 06:13:53;;;;;;;6.70;6.10;;;;;;;;;;6218205;28;20222;-77
2023/09/16 06:16:54;;;;;;;8.80;6.40;;;;;;;;;;6218440;28;20214;-76
2023/09/16 06:19:56;;;;;;;7.17;6.33;;;;;;;;;;6208198;28;20191;-75
2023/09/16 06:23:02;;;;;;;10.20;6.27;;;;;;;;;;6206887;28;20249;-74
2023/09/16 06:26:03;;;;;;;6.93;6.23;;;;;;;;;;6204188;28;20251;-73
2023/09/16 06:29:04;;;;;;;6.47;5.97;;;;;;;;;;6222709;28;20277;-71
2023/09/16 06:32:05;;;;;;;6.60;6.00;;;;;;;;;;6203744;28;20215;-76
2023/09/16 06:35:06;;;;;;;8.03;6.50;;;;;;;;;;6203733;28;20219;-75
2023/09/16 06:38:07;;;;;;;6.97;6.23;;;;;;;;;;6193537;28;20191;-75
2023/09/16 06:41:08;;;;;;;7.40;6.13;;;;;;;;;;6213112;28;20187;-75
2023/09/16 06:44:09;;;;;;;6.30;5.70;;;;;;;;;;6205026;28;20199;-75
2023/09/16 06:47:10;;;;;;;6.33;5.73;;;;;;;;;;6199838;28;20195;-76
2023/09/16 06:50:12;;;;;;;7.90;6.17;;;;;;;;;;6199750;28;20199;-76
2023/09/16 06:53:13;;;;;;;6.57;5.97;;;;;;;;;;6203847;28;20216;-74
2023/09/16 06:56:14;;;;;;;7.03;6.53;;;;;;;;;;6210904;28;20249;-73
2023/09/16 06:59:15;;;;;;;6.70;6.07;;;;;;;;;;6201447;28;20188;-72
2023/09/16 07:02:16;;;;;;;6.73;6.17;;;;;;;;;;6216180;28;20223;-75
2023/09/16 07:05:17;;;;;;;7.63;6.87;;;;;;;;;;6207638;28;20250;-75
2023/09/16 07:08:19;;;;;;;8.70;7.67;;;;;;;;;;6202303;28;20194;-74
2023/09/16 07:11:20;;;;;;;7.30;6.60;;;;;;;;;;6226406;28;20202;-74
2023/09/16 07:14:21;;;;;;;7.37;6.67;;;;;;;;;;6203056;28;20219;-75
2023/09/16 07:17:22;;;;;;;7.30;6.70;;;;;;;;;;6200618;28;20229;-74
2023/09/16 07:20:24;;;;;;;7.47;6.77;;;;;;;;;;6212947;28;20196;-72
2023/09/16 07:23:25;;;;;;;6.97;6.37;;;;;;;;;;6197434;28;20198;-72
2023/09/16 07:26:26;;;;;;;7.87;7.17;;;;;;;;;;6207622;28;20203;-73
2023/09/16 07:29:27;;;;;;;7.70;7.00;;;;;;;;;;6209195;28;20196;-73
2023/09/16 07:32:28;;;;;;;7.83;7.17;;;;;;;;;;6204440;28;20270;-72
2023/09/16 07:35:30;;;;;;;6.80;6.20;;;;;;;;;;6220440;28;20191;-73
2023/09/16 07:38:31;;;;;;;6.83;6.13;;;;;;;;;;6208028;28;20210;-73
2023/09/16 07:41:32;;;;;;;7.53;6.83;;;;;;;;;;6207557;28;20199;-72
2023/09/16 07:44:33;;;;;;;7.70;7.07;;;;;;;;;;6214949;28;20191;-73
2023/09/16 07:47:34;;;;;;;7.20;6.60;;;;;;;;;;6213526;28;20207;-73
2023/09/16 07:50:35;;;;;;;7.53;6.77;;;;;;;;;;6219355;28;20184;-72
2023/09/16 07:53:36;;;;;;;7.80;6.00;;;;;;;;;;6206639;28;20223;-72
2023/09/16 07:56:37;;;;;;;7.30;6.70;;;;;;;;;;6215023;28;20191;-69
2023/09/16 07:59:38;;;;;;;6.77;6.17;;;;;;;;;;6203888;28;20198;-70
2023/09/16 08:02:39;;;;;;;7.20;5.90;;;;;;;;;;6208275;28;20203;-70
2023/09/16 08:05:40;;;;;;;8.43;7.43;;;;;;;;;;6209324;28;20204;-70
2023/09/16 08:08:41;;;;;;;7.23;6.23;;;;;;;;;;6201904;28;20267;-71
2023/09/16 08:11:42;;;;;;;6.97;6.37;;;;;;;;;;6205569;28;20306;-70
2023/09/16 08:14:44;;;;;;;7.33;6.73;;;;;;;;;;6202870;28;20198;-71
2023/09/16 08:17:45;;;;;;;7.00;6.40;;;;;;;;;;6220702;28;20194;-71
2023/09/16 08:20:46;;;;;;;7.47;6.77;;;;;;;;;;6203977;28;20191;-71
2023/09/16 08:23:47;;;;;;;6.77;6.20;;;;;;;;;;6208327;28;20232;-72
2023/09/16 08:26:48;;;;;;;7.10;6.50;;;;;;;;;;6202806;28;20198;-71
2023/09/16 08:29:49;;;;;;;6.70;6.10;;;;;;;;;;6203861;28;20195;-71
2023/09/16 08:32:50;;;;;;;7.40;6.80;;;;;;;;;;6201026;28;20303;-70
2023/09/16 08:35:51;;;;;;;7.70;7.00;;;;;;;;;;6208478;28;20199;-72
2023/09/16 08:38:52;;;;;;;7.63;7.03;;;;;;;;;;6205404;28;20234;-72
2023/09/16 08:42:04;;;;;;;7.50;6.90;;;;;;;;;;6200798;28;20207;-71
2023/09/16 08:45:06;;;;;;;7.60;6.90;;;;;;;;;;6205741;28;20317;-71
2023/09/16 08:48:09;;;;;;;7.57;6.90;;;;;;;;;;6227342;28;20192;-71
2023/09/16 08:51:12;;;;;;;6.53;6.00;;;;;;;;;;6216636;28;20220;-72
2023/09/16 08:54:14;;;;;;;6.43;5.83;;;;;;;;;;6213007;28;20304;-72
2023/09/16 08:57:16;;;;;;;6.40;5.80;;;;;;;;;;6224887;28;20347;-71
2023/09/16 09:00:17;;;;;;;7.27;6.67;;;;;;;;;;6203169;28;20204;-72
2023/09/16 09:03:19;;;;;;;6.60;6.10;;;;;;;;;;6217701;28;20207;-72
2023/09/16 09:06:21;;;;;;;6.80;6.30;;;;;;;;;;6207926;28;20199;-73
2023/09/16 09:09:22;;;;;;;7.13;6.53;;;;;;;;;;6204091;28;20199;-71
2023/09/16 09:12:23;;;;;;;5.90;5.43;;;;;;;;;;6216468;28;20219;-73
2023/09/16 09:15:25;;;;;;;6.20;5.70;;;;;;;;;;6199759;28;20187;-73
2023/09/16 09:18:26;;;;;;;6.00;5.50;;;;;;;;;;6210193;28;20199;-72
2023/09/16 09:21:27;;;;;;;6.20;5.70;;;14.30;93.50;;;;;;6206616;28;20206;-71
2023/09/16 09:24:28;;;;;;;6.30;5.70;;;;;;;;;;6175405;28;20242;-72
2023/09/16 09:27:29;;;;;;;5.63;5.23;;;;;;;;;;6219738;28;20249;-72
2023/09/16 09:30:31;;;;;;;5.43;4.93;;;;;;;;;;6210866;28;20187;-71
2023/09/16 09:33:39;;;;;;;5.97;5.37;;;;;;;;;;6211111;28;20217;-74
2023/09/16 09:36:41;;;;;;;6.37;5.77;;;;;;;;;;6220147;28;20189;-70
2023/09/16 09:39:45;;;;;;;5.97;5.47;;;;;;;;;;6214195;28;20282;-73
2023/09/16 09:42:47;;;;;;;5.90;5.30;;;;;;;;;;6210521;28;20196;-73
2023/09/16 09:45:48;;;;;;;5.70;5.20;;;;;;;;;;6216118;28;20218;-72
2023/09/16 09:48:49;;;;;;;5.87;5.43;;;18.40;85.30;;;;;;6194894;28;20199;-74
2023/09/16 09:51:50;;;;;;;5.83;5.27;;;19.30;79.00;;;;;;6174514;28;20222;-74
2023/09/16 09:54:55;;;;;;;6.23;5.73;;;19.40;79.90;;;;;;6202207;28;20191;-73
2023/09/16 09:57:56;;;;;;;5.57;5.17;;;19.40;80.10;;;;;;6185844;28;20188;-74
2023/09/16 10:00:57;;;;;;;5.40;5.00;;;;;;;;;;6196539;28;20195;-73
2023/09/16 10:04:01;;;;;;;5.27;4.87;;;;;;;;;;6220229;28;20191;-74
2023/09/16 10:07:04;;;;;;;5.00;4.60;;;;;;;;;;6211911;28;20192;-73
2023/09/16 10:10:05;;;;;;;5.03;4.63;;;;;;;;;;6203850;28;20257;-73
2023/09/16 10:13:07;;;;;;;4.60;4.20;;;;;;;;;;6217826;28;20218;-73
2023/09/16 10:16:08;;;;;;;5.07;4.57;;;;;;;;;;6206236;28;20246;-73
2023/09/16 10:19:10;;;;;;;7.30;4.50;;;;;;;;;;6200251;28;20218;-73
2023/09/16 10:22:12;;;;;;;5.03;4.50;;;;;;;;;;6206778;28;20261;-73
2023/09/16 10:25:13;;;;;;;5.93;5.03;;;;;;;;;;6210969;28;20266;-73
2023/09/16 10:28:14;;;;;;;5.50;5.10;;;;;;;;;;6221246;28;20210;-73
2023/09/16 10:31:16;;;;;;;6.23;5.73;;;;;;;;;;6200632;28;20291;-71
2023/09/16 10:34:17;;;;;;;5.13;4.73;;;;;;;;;;6208724;28;20273;-71
2023/09/16 10:37:19;;;;;;;4.73;4.43;;;;;;;;;;6205231;28;20332;-71
2023/09/16 10:40:20;;;;;;;4.97;4.57;;;;;;;;;;6199887;28;20196;-71
2023/09/16 10:43:21;;;;;;;5.33;4.93;;;;;;;;;;6214070;28;20241;-71
2023/09/16 10:46:22;;;;;;;5.33;4.83;;;;;;;;;;6216258;28;20202;-70
2023/09/16 10:49:23;;;;;;;6.43;4.87;;;;;;;;;;6217399;28;20195;-70
2023/09/16 10:52:30;;;;;;;4.13;3.83;;;;;;;;;;6213562;28;20225;-71
2023/09/16 10:55:34;;;;;;;3.73;3.43;;;;;;;;;;6206330;28;20210;-71
2023/09/16 10:58:44;;;;;;;5.20;4.70;;;;;;;;;;6210075;28;20271;-71
2023/09/16 11:01:57;;;;;;;4.77;4.00;;;19.50;80.80;;;;;;6214568;28;20274;-72
2023/09/16 11:04:59;;;;;;;5.50;4.97;;;22.20;68.50;;;;;;6207979;28;20187;-72
2023/09/16 11:07:59;;;;;;;4.40;4.07;;;22.20;68.60;;;;;;6208268;28;20195;-72
2023/09/16 11:11:01;;;;;;;3.90;3.60;;;22.30;69.70;;;;;;6226220;28;20203;-72
2023/09/16 11:14:03;;;;;;;4.43;4.03;;;22.30;66.90;;;;;;6196945;28;20250;-72
2023/09/16 11:17:12;;;;;;;4.67;4.17;;;22.40;67.40;;;;;;6239541;28;20278;-73
2023/09/16 11:20:21;;;;;;;5.23;4.40;;;22.50;67.30;;;;;;6208707;28;20199;-72
2023/09/16 11:23:23;;;;;;;4.43;3.93;;;22.50;68.70;;;;;;6203903;28;20231;-72
2023/09/16 11:26:23;;;;;;;5.47;3.50;;;22.50;68.60;;;;;;6203478;28;20203;-73
2023/09/16 11:29:26;;;;;;;3.87;3.57;;;22.60;67.00;;;;;;6194895;28;20192;-73
2023/09/16 11:32:26;;;;;;;5.73;4.90;;;22.70;69.20;;;;;;6222086;28;20295;-72
2023/09/16 11:35:28;;;;;;;5.30;4.80;;;22.80;69.30;;;;;;6187593;28;20190;-71
2023/09/16 11:38:29;;;;;;;5.53;4.60;;;;;;;;;;6234172;28;20183;-72
2023/09/16 11:41:30;;;;;;;4.90;4.37;;;23.10;70.00;;;;;;6216490;28;20198;-70
2023/09/16 11:44:31;;;;;;;3.97;3.60;;;23.60;63.30;;;;;;6217512;28;20235;-69
2023/09/16 11:47:32;;;;;;;5.50;5.00;;;23.70;66.20;;;;;;6194802;28;20197;-70
2023/09/16 11:50:33;;;;;;;4.43;4.00;;;23.60;65.90;;;;;;6207180;28;20203;-70
2023/09/16 11:53:33;;;;;;;5.53;3.80;;;23.60;67.20;;;;;;6191619;28;20323;-70
2023/09/16 11:56:35;;;;;;;3.90;3.60;;;23.60;67.30;;;;;;6188595;28;20203;-70
2023/09/16 11:59:35;;;;;;;4.00;3.70;;;23.60;67.30;;;;;;6236736;28;20226;-71
2023/09/16 12:02:36;;;;;;;6.13;3.73;;;23.70;65.50;;;;;;6208696;28;20196;-70
2023/09/16 12:05:38;;;;;;;4.10;3.70;;;24.00;65.10;;;;;;6207445;28;20195;-71
2023/09/16 12:08:40;;;;;;;4.50;3.73;;;;;;;;;;6202773;28;20199;-70
2023/09/16 12:11:41;;;;;;;3.60;3.23;;;;;;;;;;6213728;28;20221;-70
2023/09/16 12:14:42;;;;;;;4.33;3.47;;;24.20;64.80;;;;;;6230979;28;20241;-71
2023/09/16 12:17:43;;;;;;;5.07;3.73;;;;;;;;;;6213257;28;20206;-71
2023/09/16 12:20:45;;;;;;;3.60;3.20;;;28.50;56.80;;;;;;6203526;28;20286;-70
2023/09/16 12:23:47;;;;;;;5.73;3.30;;;28.40;56.30;;;;;;6200054;28;20330;-71
2023/09/16 12:26:49;;;;;;;4.33;3.47;;;;;;;;;;6173415;28;20203;-71
2023/09/16 12:29:50;;;;;;;3.43;2.93;;;;;;;;;;6227222;28;20194;-70
2023/09/16 12:32:53;;;;;;;4.50;3.00;;;;;;;;;;6203987;28;20214;-73
2023/09/16 12:35:54;;;;;;;3.20;3.00;;;30.00;50.50;;;;;;6209305;28;20251;-73
2023/09/16 12:38:56;;;;;;;3.07;2.87;;;29.70;50.50;;;;;;6210068;28;20191;-75
2023/09/16 12:41:58;;;;;;;3.60;2.97;;;29.20;52.30;;;;;;6205469;28;20192;-72
2023/09/16 12:45:00;;;;;;;4.47;3.23;;;28.50;54.10;;;;;;6208681;28;20194;-71
2023/09/16 12:48:01;;;;;;;3.13;2.83;;;27.80;53.70;;;;;;6194940;28;20188;-70
2023/09/16 12:51:03;;;;;;;2.90;2.70;;;27.30;51.90;;;;;;6203387;28;20229;-73
2023/09/16 12:54:05;;;;;;;3.60;3.30;;;26.90;55.40;;;;;;6205776;28;20277;-73
2023/09/16 12:57:07;;;;;;;3.13;2.83;;;26.80;56.60;;;;;;6226271;28;20194;-74
2023/09/16 13:00:15;;;;;;;2.90;2.70;;;26.50;56.90;;;;;;6206675;28;20187;-74
2023/09/16 13:03:16;;;;;;;2.80;2.60;;;26.90;57.60;;;;;;6214126;28;20191;-74
2023/09/16 13:06:18;;;;;;;5.17;3.50;;;;;;;;;;6223896;28;20195;-75
2023/09/16 13:09:20;;;;;;;3.37;3.07;;;30.10;53.50;;;;;;6208186;28;20294;-75
2023/09/16 13:12:21;;;;;;;8.97;2.90;;;;;;;;;;6188043;28;20307;-71
2023/09/16 13:15:22;;;;;;;4.83;2.67;;;;;;;;;;6211683;28;20549;-72
2023/09/16 13:18:24;;;;;;;2.50;2.30;;;;;;;;;;6207102;28;20199;-71
2023/09/16 13:21:34;;;;;;;6.23;2.37;;;;;;;;;;6218460;28;20322;-71
2023/09/16 13:24:43;;;;;;;3.37;2.40;;;31.70;48.80;;;;;;6216911;28;20235;-72
2023/09/16 13:27:44;;;;;;;3.25;2.42;;;36.40;40.40;;;;;;6219465;28;20195;-75
2023/09/16 13:30:50;;;;;;;4.00;2.30;;;37.20;39.40;;;;;;6207712;28;20230;-73
2023/09/16 13:33:59;;;;;;;4.95;2.38;;;;;;;;;;6237688;28;20223;-72
2023/09/16 13:37:00;;;;;;;2.40;2.17;;;;;;;;;;6223670;28;20180;-72
2023/09/16 13:40:09;;;;;;;5.55;2.63;;;;;;;;;;6204472;28;20250;-72
2023/09/16 13:43:10;;;;;;;3.58;2.45;;;;;;;;;;6201172;28;20188;-71
2023/09/16 13:46:11;;;;;;;3.15;2.50;;;;;;;;;;6202456;28;20202;-71
2023/09/16 13:49:12;;;;;;;2.85;1.98;;;;;;;;;;6200642;28;20218;-70
2023/09/16 13:52:14;;;;;;;3.13;2.13;;;;;;;;;;6202506;28;20286;-71
2023/09/16 13:55:15;;;;;;;2.67;2.40;;;;;;;;;;6205512;28;20273;-71
2023/09/16 13:58:16;;;;;;;3.00;2.80;;;;;;;;;;6222450;28;20182;-71
2023/09/16 14:01:17;;;;;;;3.93;2.90;;;32.90;42.60;;;;;;6208876;28;20191;-71
2023/09/16 14:04:18;;;;;;;3.60;2.63;;;;;;;;;;6189759;28;20228;-70
2023/09/16 14:07:20;;;;;;;3.03;2.83;;;;;;;;;;6208852;28;20220;-69
2023/09/16 14:10:27;;;;;;;3.83;2.57;;;29.60;49.20;;;;;;6213741;28;20191;-70
2023/09/16 14:13:28;;;;;;;4.73;2.87;;;28.60;53.00;;;;;;6231799;28;20211;-70
2023/09/16 14:16:30;;;;;;;3.30;3.00;;;;;;;;;;6206305;28;20198;-72
2023/09/16 14:19:32;;;;;;;6.40;3.37;;;;;;;;;;6221025;28;20191;-72
2023/09/16 14:22:33;;;;;;;4.10;3.60;;;24.00;50.00;;;;;;6201942;28;20227;-72
2023/09/16 14:25:34;;;;;;;3.23;2.97;;;26.80;57.60;;;;;;6182332;28;20244;-73
2023/09/16 14:28:35;;;;;;;3.20;3.00;;;27.20;57.10;;;;;;6199850;28;20279;-73
2023/09/16 14:31:37;;;;;;;2.80;2.60;;;;;;;;;;6186910;28;20201;-73
2023/09/16 14:34:37;;;;;;;3.87;2.87;;;28.00;56.00;;;;;;6202019;28;20215;-73
2023/09/16 14:37:39;;;;;;;4.43;2.87;;;;;;;;;;6224542;28;20202;-73
2023/09/16 14:40:40;;;;;;;2.67;2.47;;;32.00;47.10;;;;;;6213033;28;20187;-73
2023/09/16 14:43:41;;;;;;;3.13;2.83;;;32.00;47.80;;;;;;6184243;28;20195;-71
2023/09/16 14:46:42;;;;;;;3.10;2.80;;;;;;;;;;6192360;28;20194;-71
2023/09/16 14:49:44;;;;;;;2.70;2.50;;;32.00;46.30;;;;;;6223383;28;20317;-71
2023/09/16 14:52:45;;;;;;;3.00;2.80;;;31.80;48.40;;;;;;6190693;28;20232;-72
2023/09/16 14:55:50;;;;;;;3.27;2.40;;;31.60;48.40;;;;;;6193842;28;20192;-72
2023/09/16 14:58:51;;;;;;;3.73;2.73;;;31.40;48.20;;;;;;6217939;28;20223;-71
2023/09/16 15:01:53;;;;;;;2.70;2.50;;;31.30;48.90;;;;;;6191686;28;20190;-71
2023/09/16 15:04:56;;;;;;;4.03;2.60;;;31.20;49.30;;;;;;6203421;28;20341;-72
2023/09/16 15:07:57;;;;;;;2.97;2.77;;;31.50;48.80;;;;;;6201632;28;20220;-71
2023/09/16 15:10:58;;;;;;;4.10;2.60;;;;;;;;;;6196833;28;20203;-72
2023/09/16 15:13:59;;;;;;;5.50;2.67;;;32.10;47.50;;;;;;6240741;28;20225;-71
2023/09/16 15:17:00;;;;;;;4.63;2.53;;;32.20;47.20;;;;;;6226364;28;20179;-73
2023/09/16 15:20:01;;;;;;;4.17;2.87;;;32.80;45.90;;;;;;6189444;28;20208;-69
2023/09/16 15:23:02;;;;;;;3.73;2.67;;;33.00;46.20;;;;;;6194109;28;20191;-67
2023/09/16 15:26:06;;;;;;;4.57;2.50;;;32.40;46.40;;;;;;6210224;28;20239;-72
2023/09/16 15:29:07;;;;;;;4.40;2.93;;;31.50;47.50;;;;;;6226676;28;20195;-71
2023/09/16 15:32:08;;;;;;;3.07;2.87;;;30.70;47.60;;;;;;6199750;28;20238;-72
2023/09/16 15:35:09;;;;;;;3.33;2.90;;;29.90;50.00;;;;;;6217632;28;20275;-72
2023/09/16 15:38:10;;;;;;;4.40;3.20;;;29.30;51.50;;;;;;6208506;28;20201;-70
2023/09/16 15:41:11;;;;;;;3.10;2.90;;;28.90;51.90;;;;;;6202308;28;20191;-70
2023/09/16 15:44:13;;;;;;;5.10;3.00;;;;;;;;;;6196935;28;20199;-71
2023/09/16 15:47:14;;;;;;;3.93;3.20;;;28.50;52.80;;;;;;6208238;28;20282;-67
2023/09/16 15:50:14;;;;;;;3.30;3.00;;;27.60;54.40;;;;;;6217191;28;20202;-69
2023/09/16 15:53:16;;;;;;;3.67;3.37;;;;;;;;;;6211621;28;20211;-69
2023/09/16 15:56:17;;;;;;;3.60;3.30;;;;;;;;;;6216283;28;20195;-71
2023/09/16 15:59:18;;;;;;;4.83;3.30;;;;;;;;;;6192670;28;20191;-70
2023/09/16 16:02:20;;;;;;;4.10;3.07;;;;;;;;;;6205801;28;20198;-65
2023/09/16 16:05:21;;;;;;;5.50;3.73;;;;;;;;;;6212240;28;20201;-64
2023/09/16 16:08:23;;;;;;;4.03;3.70;;;;;;;;;;6212995;28;20196;-67
2023/09/16 16:11:24;;;;;;;3.77;3.47;;;;;;;;;;6206920;28;20282;-66
2023/09/16 16:14:25;;;;;;;3.70;3.40;;;;;;;;;;6209288;28;20219;-66
2023/09/16 16:17:27;;;;;;;4.03;3.60;;;;;;;;;;6194800;28;20191;-67
2023/09/16 16:20:28;;;;;;;4.53;4.13;;;27.30;54.00;;;;;;6242220;28;20194;-67
2023/09/16 16:23:29;;;;;;;5.60;4.20;;;;;;;;;;6208722;28;20205;-67
2023/09/16 16:26:35;;;;;;;4.87;4.23;;;;;;;;;;6205409;28;20202;-66
2023/09/16 16:29:36;;;;;;;4.30;4.00;;;;;;;;;;6224789;28;20298;-65
2023/09/16 16:32:37;;;;;;;4.37;4.00;;;;;;;;;;6205269;28;20310;-66
2023/09/16 16:35:38;;;;;;;5.10;4.63;;;;;;;;;;6203928;28;20336;-70
2023/09/16 16:38:40;;;;;;;3.67;3.47;;;;;;;;;;6211130;28;20263;-72
2023/09/16 16:41:42;;;;;;;4.20;3.90;;;;;;;;;;6215115;28;20191;-73
2023/09/16 16:44:43;;;;;;;4.73;4.33;;;;;;;;;;6210755;28;20269;-72
2023/09/16 16:47:45;;;;;;;5.70;4.83;;;;;;;;;;6206568;28;20202;-71
2023/09/16 16:50:47;;;;;;;4.80;4.40;;;;;;;;;;6209052;28;20287;-72
2023/09/16 16:53:48;;;;;;;4.73;4.43;;;;;;;;;;6211231;28;20261;-70
2023/09/16 16:56:49;;;;;;;5.33;4.87;;;;;;;;;;6200210;28;20191;-73
2023/09/16 16:59:50;;;;;;;4.97;4.57;;;;;;;;;;6200338;28;20195;-72
2023/09/16 17:02:52;;;;;;;4.97;4.40;;;;;;;;;;6200189;28;20287;-73
2023/09/16 17:05:53;;;;;;;5.43;4.93;;;;;;;;;;6208682;28;20254;-72
2023/09/16 17:08:55;;;;;;;6.50;4.80;;;;;;;;;;6219156;28;20239;-72
2023/09/16 17:11:56;;;;;;;5.60;5.10;;;;;;;;;;6223703;28;20191;-72